Time;durP1;ratioP1;P1;durP2;ratioP2;P2;SDS_P1;SDS_P2;PMS_P1;PMS_P2;Temp;Humidity;BMP_temperature;BMP_pressure;BME280_temperature;BME280_humidity;BME280_pressure;Samples;Min_cycle;Max_cycle;Signal;HPM_P1;HPM_P2
2022/07/27 00:00:53;;;;;;;2.40;2.30;;;22.60;83.10;;;23.53;52.23;100604.38;5041030;28;20686;-71
2022/07/27 00:03:22;;;;;;;2.30;2.20;;;22.60;83.20;;;23.55;52.27;100605.00;5049616;28;20713;-70
2022/07/27 00:05:49;;;;;;;2.20;2.20;;;22.70;83.70;;;23.45;52.33;100605.34;5049423;28;21258;-72
2022/07/27 00:08:19;;;;;;;2.23;2.10;;;22.60;83.10;;;23.39;52.51;100606.13;5052528;28;20739;-70
2022/07/27 00:10:46;;;;;;;2.10;2.00;;;22.50;83.60;;;23.48;52.36;100609.47;5050416;28;20623;-70
2022/07/27 00:13:13;;;;;;;3.13;2.33;;;22.60;83.40;;;23.50;52.00;100618.06;5049479;28;20627;-70
2022/07/27 00:15:40;;;;;;;2.30;2.10;;;22.60;83.30;;;23.61;51.86;100610.38;5031652;28;20639;-70
2022/07/27 00:18:08;;;;;;;2.60;2.03;;;22.60;83.20;;;23.48;52.16;100612.97;5032245;28;20666;-71
2022/07/27 00:20:35;;;;;;;2.10;2.00;;;22.60;83.30;;;23.49;52.02;100611.91;5050772;28;20612;-70
2022/07/27 00:23:02;;;;;;;2.17;2.07;;;22.60;83.60;;;23.39;52.64;100615.94;5050696;28;20612;-69
2022/07/27 00:25:29;;;;;;;2.20;2.10;;;22.50;84.00;;;23.33;53.32;100606.06;5051581;28;21390;-70
2022/07/27 00:27:56;;;;;;;2.00;1.90;;;22.40;84.50;;;23.34;52.66;100615.72;5049416;28;21033;-70
2022/07/27 00:30:25;;;;;;;2.20;2.10;;;22.40;84.80;;;23.26;52.94;100610.47;5039255;28;21215;-70
2022/07/27 00:32:52;;;;;;;2.27;2.17;;;22.40;85.40;;;23.29;52.99;100616.25;5050690;28;20699;-70
2022/07/27 00:35:19;;;;;;;2.90;2.70;;;22.30;85.30;;;23.21;53.18;100610.25;5050155;28;20633;-70
2022/07/27 00:37:46;;;;;;;1.70;1.70;;;22.30;85.90;;;23.04;53.70;100602.53;5051177;28;21222;-70
2022/07/27 00:40:13;;;;;;;2.40;2.20;;;22.10;86.50;;;22.91;54.41;100606.91;5051130;28;20614;-70
2022/07/27 00:42:41;;;;;;;2.10;2.00;;;22.00;87.50;;;22.91;54.34;100610.38;5050435;28;20891;-70
2022/07/27 00:45:08;;;;;;;1.97;1.87;;;22.00;87.80;;;22.87;54.33;100605.66;5048478;28;20636;-70
2022/07/27 00:47:35;;;;;;;2.10;2.00;;;21.90;88.10;;;22.82;54.66;100613.38;5049253;28;20674;-70
2022/07/27 00:50:03;;;;;;;3.17;1.80;;;21.90;88.30;;;22.79;54.61;100614.56;5050112;28;20616;-71
2022/07/27 00:52:30;;;;;;;2.20;2.10;;;21.80;88.80;;;22.59;55.40;100620.69;5033523;28;20612;-70
2022/07/27 00:54:58;;;;;;;2.10;2.00;;;21.70;89.30;;;22.59;55.34;100624.19;5049950;28;20632;-70
2022/07/27 00:57:29;;;;;;;2.23;2.13;;;21.70;89.80;;;22.54;55.33;100623.88;5031800;28;20642;-70
2022/07/27 00:59:56;;;;;;;2.40;2.20;;;21.70;89.90;;;22.48;55.61;100624.63;5030578;28;20624;-70
2022/07/27 01:02:25;;;;;;;2.10;2.00;;;21.60;90.10;;;22.49;55.44;100620.94;5049215;28;20730;-70
2022/07/27 01:04:52;;;;;;;2.00;1.90;;;21.60;90.30;;;22.37;55.81;100620.63;5049674;28;21055;-70
2022/07/27 01:07:23;;;;;;;1.80;1.80;;;21.60;90.30;;;22.42;55.92;100623.53;5050723;28;21270;-70
2022/07/27 01:09:56;;;;;;;2.60;2.43;;;21.60;90.50;;;22.53;55.38;100622.22;5032405;28;20659;-70
2022/07/27 01:12:30;;;;;;;2.20;2.00;;;21.60;90.40;;;22.58;55.34;100616.34;5049623;28;20616;-70
2022/07/27 01:14:59;;;;;;;2.33;2.20;;;21.60;90.40;;;22.45;55.99;100611.72;5030947;28;20632;-69
2022/07/27 01:17:30;;;;;;;2.50;2.40;;;21.60;90.60;;;22.51;55.73;100612.81;5029636;28;20642;-66
2022/07/27 01:19:58;;;;;;;2.20;2.10;;;21.60;90.80;;;22.70;54.84;100613.03;5043727;28;20732;-70
2022/07/27 01:22:25;;;;;;;2.20;2.00;;;21.70;90.40;;;22.69;54.52;100618.56;5049695;28;20620;-70
2022/07/27 01:24:52;;;;;;;2.43;2.23;;;21.70;90.20;;;22.73;54.35;100625.13;5050086;28;20623;-71
2022/07/27 01:27:19;;;;;;;2.03;1.93;;;21.80;90.00;;;22.79;54.34;100630.53;5032485;28;20743;-71
2022/07/27 01:29:46;;;;;;;2.30;2.20;;;21.80;90.00;;;22.80;53.90;100624.22;5049327;28;20627;-71
2022/07/27 01:32:13;;;;;;;1.83;1.83;;;21.80;90.10;;;22.85;53.89;100634.28;5050046;28;20580;-70
2022/07/27 01:34:40;;;;;;;2.00;2.00;;;21.80;89.90;;;22.74;54.24;100629.47;5031328;28;20642;-69
2022/07/27 01:37:07;;;;;;;3.13;2.00;;;21.80;90.00;;;22.66;54.54;100629.59;5032263;28;20612;-72
2022/07/27 01:39:34;;;;;;;2.53;2.10;;;21.80;90.10;;;22.78;54.28;100628.91;5049898;28;20635;-71
2022/07/27 01:42:02;;;;;;;1.90;1.80;;;21.80;90.10;;;22.83;53.99;100613.16;5050734;28;20619;-71
2022/07/27 01:44:29;;;;;;;2.10;2.00;;;21.90;90.00;;;22.82;54.16;100613.38;5049051;28;20631;-71
2022/07/27 01:46:56;;;;;;;2.30;1.87;;;21.90;90.00;;;22.91;53.56;100614.91;5032121;28;20666;-70
2022/07/27 01:49:23;;;;;;;2.40;2.30;;;21.90;89.70;;;22.91;53.49;100613.03;5048857;28;20643;-70
2022/07/27 01:51:50;;;;;;;2.03;1.93;;;21.90;89.80;;;22.99;53.57;100615.59;5048605;28;20636;-71
2022/07/27 01:54:17;;;;;;;1.80;1.70;;;22.00;89.60;;;22.86;53.76;100618.13;5029214;28;20621;-70
2022/07/27 01:56:44;;;;;;;2.10;2.00;;;22.00;89.70;;;22.87;53.68;100622.41;5043318;28;20698;-68
2022/07/27 01:59:11;;;;;;;2.10;2.00;;;21.90;89.70;;;22.88;53.58;100618.75;5052314;28;20636;-69
2022/07/27 02:01:43;;;;;;;1.90;1.80;;;21.90;89.70;;;22.98;53.38;100624.56;5050048;28;20631;-69
2022/07/27 02:04:11;;;;;;;2.80;2.00;;;22.00;89.50;;;22.90;53.57;100614.06;5053321;28;21253;-69
2022/07/27 02:06:38;;;;;;;1.93;1.83;;;21.90;89.60;;;22.94;53.38;100619.81;5053603;28;20662;-69
2022/07/27 02:09:05;;;;;;;2.83;2.00;;;22.00;90.10;;;22.92;53.40;100614.69;5052999;28;20648;-69
2022/07/27 02:14:18;;;;;;;1.53;1.53;;;21.80;90.00;;;22.72;54.08;100620.84;5051893;28;20612;-68
2022/07/27 02:16:47;;;;;;;2.30;1.63;;;21.80;90.30;;;22.70;54.28;100612.22;5033543;28;20677;-71
2022/07/27 02:19:16;;;;;;;1.53;1.53;;;21.70;90.50;;;22.67;54.27;100616.09;5051347;28;20674;-70
2022/07/27 02:21:44;;;;;;;1.90;1.83;;;21.80;90.50;;;22.68;54.36;100609.75;5052489;28;20737;-69
2022/07/27 02:24:11;;;;;;;1.70;1.70;;;21.70;90.60;;;22.55;54.91;100614.91;5052305;28;20643;-68
2022/07/27 02:26:38;;;;;;;1.33;1.33;;;21.60;90.80;;;22.42;55.29;100609.44;5035726;28;20720;-69
2022/07/27 02:29:05;;;;;;;2.20;1.67;;;21.50;91.10;;;22.21;55.86;100606.75;5053195;28;20628;-69
2022/07/27 02:31:32;;;;;;;1.50;1.50;;;21.40;91.40;;;22.44;55.13;100610.06;5050545;28;20632;-68
2022/07/27 02:33:59;;;;;;;1.73;1.63;;;21.40;91.40;;;22.31;55.44;100604.59;5053058;28;20604;-69
2022/07/27 02:36:29;;;;;;;1.93;1.83;;;21.40;91.50;;;22.31;55.62;100592.16;5052526;28;20698;-69
2022/07/27 02:38:57;;;;;;;1.13;1.13;;;21.40;91.70;;;22.23;56.07;100607.38;5036265;28;20731;-68
2022/07/27 02:41:24;;;;;;;1.60;1.60;;;21.30;91.90;;;22.26;55.92;100602.50;5052107;28;20636;-69
2022/07/27 02:43:51;;;;;;;1.70;1.60;;;21.30;92.00;;;22.43;55.16;100608.41;5052845;28;21211;-68
2022/07/27 02:46:18;;;;;;;1.60;1.60;;;21.40;91.90;;;22.42;55.38;100604.13;5031416;28;21195;-69
2022/07/27 02:48:45;;;;;;;1.77;1.77;;;21.50;91.80;;;22.35;55.75;100600.56;5051257;28;21477;-69
2022/07/27 02:51:13;;;;;;;1.40;1.30;;;21.40;91.80;;;22.42;55.25;100611.28;5051551;28;21187;-69
2022/07/27 02:53:41;;;;;;;1.40;1.40;;;21.40;91.90;;;22.33;55.59;100610.56;5027849;28;21235;-69
2022/07/27 02:56:08;;;;;;;1.93;1.77;;;21.40;92.00;;;22.31;55.82;100605.44;5041607;28;20727;-68
2022/07/27 02:58:35;;;;;;;1.80;1.70;;;21.40;92.20;;;22.25;56.09;100613.31;5050894;28;20659;-69
2022/07/27 03:01:04;;;;;;;2.73;1.63;;;21.30;92.40;;;22.18;56.21;100615.06;5022423;28;20742;-68
2022/07/27 03:03:33;;;;;;;1.70;1.70;;;21.20;92.90;;;22.20;56.47;100615.69;5031306;28;21181;-69
2022/07/27 03:06:05;;;;;;;1.50;1.50;;;21.20;92.70;;;22.29;56.29;100604.78;5050531;28;20623;-69
2022/07/27 03:08:32;;;;;;;1.33;1.33;;;21.30;92.70;;;22.21;56.76;100604.06;5050906;28;21247;-69
2022/07/27 03:10:59;;;;;;;1.63;1.53;;;21.30;92.80;;;22.19;56.64;100604.25;5051141;28;20634;-68
2022/07/27 03:13:27;;;;;;;2.10;1.53;;;21.30;93.00;;;22.23;56.67;100610.03;5035347;28;20600;-69
2022/07/27 03:15:55;;;;;;;1.83;1.73;;;21.30;93.00;;;22.18;56.92;100607.09;5049728;28;20627;-68
2022/07/27 03:18:22;;;;;;;1.77;1.67;;;21.30;93.20;;;22.22;56.87;100611.84;5033396;28;20667;-68
2022/07/27 03:20:48;;;;;;;1.57;1.47;;;21.30;93.20;;;22.34;56.52;100609.53;5051536;28;20622;-68
2022/07/27 03:23:19;;;;;;;1.60;1.50;;;21.40;93.20;;;22.29;56.51;100615.44;5032961;28;20734;-69
2022/07/27 03:25:46;;;;;;;1.57;1.47;;;21.40;93.30;;;22.30;56.58;100609.09;5041439;28;20640;-72
2022/07/27 03:28:13;;;;;;;1.60;1.50;;;21.40;93.30;;;22.13;56.88;100617.44;5049928;28;20679;-68
2022/07/27 03:30:40;;;;;;;1.23;1.20;;;21.20;93.40;;;22.17;56.68;100616.91;5049835;28;20731;-69
2022/07/27 03:33:07;;;;;;;1.43;1.40;;;21.20;93.50;;;22.11;56.94;100614.16;5051384;28;20616;-68
2022/07/27 03:35:34;;;;;;;1.60;1.50;;;21.20;93.50;;;22.23;56.53;100618.00;5050317;28;21004;-68
2022/07/27 03:38:01;;;;;;;1.37;1.27;;;21.30;93.30;;;22.19;55.97;100620.19;5034596;28;20659;-67
2022/07/27 03:40:30;;;;;;;1.30;1.20;;;21.30;92.90;;;22.02;56.52;100620.59;5049947;28;20660;-69
2022/07/27 03:42:58;;;;;;;1.10;1.10;;;21.10;93.20;;;22.08;56.29;100617.19;5051908;28;20608;-68
2022/07/27 03:45:25;;;;;;;1.37;1.37;;;21.10;93.30;;;21.95;56.66;100615.19;5028555;28;20641;-68
2022/07/27 03:47:53;;;;;;;1.50;1.40;;;21.10;93.60;;;21.96;56.99;100610.69;5032242;28;20668;-70
2022/07/27 03:50:20;;;;;;;1.60;1.27;;;21.00;93.70;;;22.01;56.56;100624.25;5031090;28;20617;-68
2022/07/27 03:52:47;;;;;;;1.83;1.57;;;21.10;93.60;;;22.02;56.79;100616.06;5032299;28;20621;-69
2022/07/27 03:55:14;;;;;;;1.90;1.23;;;21.00;93.80;;;22.10;56.45;100617.84;5044698;28;20640;-69
2022/07/27 03:57:40;;;;;;;1.37;1.37;;;21.10;93.80;;;21.95;56.85;100617.00;5042460;28;20687;-69
2022/07/27 04:00:11;;;;;;;1.17;1.17;;;21.00;94.00;;;22.03;56.88;100612.44;5046050;28;20633;-68
2022/07/27 04:02:41;;;;;;;1.90;1.20;;;21.00;94.00;;;22.07;56.63;100608.38;5049780;28;20640;-65
2022/07/27 04:05:09;;;;;;;1.17;1.07;;;21.10;93.90;;;22.11;56.41;100612.31;5033297;28;20620;-69
2022/07/27 04:07:39;;;;;;;0.93;0.93;;;21.20;93.60;;;22.10;56.21;100623.16;5050082;28;20762;-68
2022/07/27 04:10:07;;;;;;;2.40;1.40;;;21.30;93.60;;;22.15;55.96;100626.06;5051447;28;20612;-69
2022/07/27 04:12:38;;;;;;;1.47;1.37;;;21.20;93.60;;;22.07;56.32;100629.66;5043653;28;20639;-68
2022/07/27 04:15:06;;;;;;;1.20;1.20;;;21.20;93.60;;;21.92;57.00;100634.13;5050805;28;20711;-68
2022/07/27 04:17:33;;;;;;;1.20;1.20;;;21.10;93.80;;;21.86;57.06;100631.38;5051241;28;20632;-70
2022/07/27 04:20:20;;;;;;;1.03;0.90;;;21.00;94.20;;;21.82;57.60;100632.72;5035718;28;20607;-70
2022/07/27 04:22:47;;;;;;;1.10;1.10;;;20.90;94.40;;;21.82;57.52;100630.06;5049629;28;20636;-69
2022/07/27 04:25:14;;;;;;;1.20;1.20;;;20.90;94.60;;;21.80;57.59;100622.31;5051230;28;20642;-68
2022/07/27 04:27:41;;;;;;;1.20;1.20;;;20.90;94.70;;;21.76;57.71;100626.34;5049966;28;20671;-69
2022/07/27 04:30:09;;;;;;;1.10;1.10;;;20.90;94.90;;;21.70;58.13;100631.53;5050132;28;20612;-67
2022/07/27 04:32:36;;;;;;;1.20;1.20;;;20.80;95.30;;;21.56;58.92;100625.19;5050266;28;20634;-68
2022/07/27 04:35:05;;;;;;;1.37;1.27;;;20.70;95.60;;;21.60;58.59;100621.16;5032385;28;20616;-68
2022/07/27 04:37:33;;;;;;;1.17;1.17;;;20.70;95.80;;;21.58;58.86;100631.16;5050177;28;21286;-68
2022/07/27 04:40:01;;;;;;;1.53;1.43;;;20.70;96.00;;;21.69;58.84;100638.69;5050334;28;20699;-68
2022/07/27 04:42:28;;;;;;;1.60;1.50;;;20.70;96.10;;;21.60;58.81;100626.47;5049169;28;20632;-69
2022/07/27 04:44:56;;;;;;;1.10;1.10;;;20.80;96.10;;;21.71;58.82;100630.53;5051082;28;21030;-69
2022/07/27 04:47:23;;;;;;;1.20;1.10;;;20.90;96.00;;;21.93;58.21;100629.66;5013590;28;20675;-69
2022/07/27 04:49:50;;;;;;;1.10;1.10;;;21.00;95.70;;;21.90;57.98;100630.00;5029571;28;20621;-69
2022/07/27 04:52:17;;;;;;;3.77;1.27;;;21.00;95.60;;;22.03;57.55;100624.88;5042464;28;20632;-68
2022/07/27 04:54:44;;;;;;;1.10;1.10;;;21.10;95.70;;;22.10;57.72;100639.09;5049072;28;20715;-69
2022/07/27 04:57:11;;;;;;;0.97;0.97;;;21.20;95.50;;;21.95;57.94;100638.25;5046805;28;20726;-69
2022/07/27 04:59:38;;;;;;;3.77;1.00;;;21.10;95.60;;;22.07;57.79;100642.94;5031455;28;20687;-68
2022/07/27 05:02:05;;;;;;;3.13;1.33;;;21.10;95.80;;;21.87;58.28;100644.47;5048830;28;21206;-68
2022/07/27 05:04:34;;;;;;;1.13;1.03;;;21.00;96.10;;;22.05;57.60;100646.78;5050965;28;20622;-68
2022/07/27 05:07:01;;;;;;;1.40;1.30;;;21.10;95.90;;;22.16;57.32;100651.63;5048969;28;20631;-68
2022/07/27 05:09:28;;;;;;;1.93;1.37;;;21.10;95.80;;;22.20;57.20;100651.09;5049894;28;20713;-68
2022/07/27 05:11:54;;;;;;;1.20;1.20;;;21.20;95.60;;;22.27;57.06;100652.00;5049435;28;21036;-68
2022/07/27 05:14:22;;;;;;;1.07;1.03;;;21.30;95.50;;;22.26;57.08;100663.63;5051192;28;20627;-68
2022/07/27 05:16:49;;;;;;;2.20;1.07;;;21.30;95.50;;;22.30;57.12;100675.53;5044770;28;21195;-68
2022/07/27 05:19:16;;;;;;;2.40;1.10;;;21.40;95.40;;;22.43;56.55;100680.19;5041857;28;20652;-68
2022/07/27 05:21:43;;;;;;;1.03;1.03;;;21.40;95.40;;;22.39;56.39;100676.25;5032205;28;20666;-69
2022/07/27 05:24:10;;;;;;;1.20;1.10;;;21.40;95.30;;;22.48;56.18;100679.63;5050276;28;20626;-66
2022/07/27 05:26:37;;;;;;;1.40;1.30;;;21.40;95.50;;;22.55;56.19;100684.03;5050797;28;20662;-69
2022/07/27 05:29:04;;;;;;;3.30;1.30;;;21.50;95.20;;;22.53;55.99;100683.38;5049118;28;21040;-68
2022/07/27 05:31:31;;;;;;;2.30;1.37;;;21.50;95.00;;;22.82;55.03;100699.34;5027169;28;21073;-68
2022/07/27 05:33:58;;;;;;;1.30;1.20;;;21.80;94.50;;;22.89;54.51;100699.41;5034246;28;20664;-69
2022/07/27 05:36:25;;;;;;;1.40;1.30;;;21.90;94.00;;;22.81;54.80;100692.34;5034487;28;20627;-68
2022/07/27 05:38:52;;;;;;;1.07;1.00;;;21.80;94.00;;;23.05;54.21;100697.31;5039029;28;20647;-69
2022/07/27 05:41:24;;;;;;;1.80;1.17;;;21.90;93.70;;;22.95;54.33;100698.66;5054722;28;20728;-68
2022/07/27 05:43:53;;;;;;;1.20;1.10;;;22.00;93.60;;;22.80;54.75;100693.38;5035586;28;20612;-67
2022/07/27 05:46:20;;;;;;;1.83;1.00;;;21.90;93.60;;;22.76;54.46;100702.75;5044415;28;20656;-67
2022/07/27 05:48:49;;;;;;;1.70;1.30;;;21.90;93.70;;;22.82;54.78;100699.34;5034273;28;21045;-69
2022/07/27 05:51:16;;;;;;;4.63;1.33;;;21.90;93.70;;;22.79;54.57;100707.66;5047240;28;20654;-68
2022/07/27 05:53:43;;;;;;;1.20;1.20;;;21.80;93.90;;;22.73;54.66;100707.59;5053539;28;20614;-69
2022/07/27 05:56:10;;;;;;;1.30;1.20;;;21.70;93.80;;;22.73;54.49;100713.75;5030993;28;20628;-69
2022/07/27 05:58:37;;;;;;;1.20;1.10;;;21.80;93.80;;;22.55;54.87;100710.63;5052072;28;20755;-68
2022/07/27 06:01:04;;;;;;;1.37;1.27;;;21.70;93.60;;;22.44;55.63;100707.63;5051891;28;21206;-68
2022/07/27 06:03:31;;;;;;;1.37;1.00;;;21.50;94.20;;;22.52;55.25;100712.81;5053381;28;20628;-69
2022/07/27 06:08:44;;;;;;;2.53;1.10;;;21.60;94.00;;;22.63;54.62;100709.72;5054947;28;20762;-69
2022/07/27 06:11:11;;;;;;;1.20;1.00;;;21.60;93.90;;;22.58;54.91;100696.97;5052454;28;20662;-69
2022/07/27 06:13:38;;;;;;;2.00;1.63;;;21.60;94.20;;;22.60;54.94;100694.97;5048424;28;20636;-70
2022/07/27 06:16:09;;;;;;;2.20;1.30;;;21.60;94.20;;;22.49;55.34;100702.56;5032041;28;20613;-68
2022/07/27 06:18:36;;;;;;;2.17;1.10;;;21.50;94.40;;;22.44;56.14;100705.78;5031886;28;21262;-70
2022/07/27 06:21:04;;;;;;;1.30;1.30;;;21.50;94.80;;;22.67;55.39;100701.19;5035434;28;21243;-69
2022/07/27 06:23:30;;;;;;;1.40;1.30;;;21.60;94.80;;;22.60;55.46;100704.78;5052655;28;20711;-69
2022/07/27 06:25:58;;;;;;;1.87;1.20;;;21.60;94.60;;;22.67;55.25;100711.84;5033086;28;20613;-69
2022/07/27 06:28:25;;;;;;;2.20;1.40;;;21.70;94.50;;;22.63;55.16;100713.22;5019408;28;20674;-70
2022/07/27 06:30:55;;;;;;;1.47;1.37;;;21.60;94.50;;;22.77;55.02;100708.88;5051984;28;20631;-70
2022/07/27 06:33:28;;;;;;;1.30;1.23;;;21.70;94.40;;;22.93;54.40;100706.81;5052456;28;20616;-69
2022/07/27 06:35:57;;;;;;;1.07;1.03;;;21.80;94.10;;;23.04;54.08;100705.50;5034771;28;20681;-69
2022/07/27 06:38:25;;;;;;;1.33;1.23;;;21.90;93.90;;;23.21;53.72;100709.56;5052390;28;20635;-69
2022/07/27 06:40:53;;;;;;;1.27;1.17;;;22.00;93.80;;;24.61;50.33;100720.03;5034797;28;20706;-69
2022/07/27 06:43:22;;;;;;;0.90;0.90;;;22.70;93.30;;;25.89;46.69;100726.91;5047196;28;20642;-68
2022/07/27 06:45:49;;;;;;;1.33;1.27;;;23.60;91.20;;;27.78;42.19;100721.72;5047382;28;20620;-69
2022/07/27 06:48:17;;;;;;;3.10;1.20;;;24.70;89.10;;;30.06;37.53;100729.66;5042804;28;20678;-69
2022/07/27 06:50:44;;;;;;;1.43;1.33;;;26.10;85.00;;;30.77;36.82;100727.44;5040170;28;20656;-68
2022/07/27 06:53:10;;;;;;;1.60;1.10;;;27.00;81.40;;;32.25;33.63;100727.81;5052705;28;21064;-70
2022/07/27 06:55:37;;;;;;;1.57;1.10;;;28.10;77.40;;;33.31;31.58;100729.88;5052740;28;20626;-69
2022/07/27 06:58:04;;;;;;;1.80;1.13;;;29.20;73.20;;;33.73;31.25;100731.84;5033384;28;20667;-70
2022/07/27 07:00:32;;;;;;;1.27;1.07;;;29.70;70.70;;;34.73;29.81;100728.91;5050768;28;20642;-69
2022/07/27 07:03:03;;;;;;;1.50;1.17;;;30.40;68.80;;;35.39;28.99;100732.56;5033815;28;20624;-68
2022/07/27 07:05:31;;;;;;;2.50;1.20;;;30.90;66.80;;;36.20;27.39;100731.44;5043990;28;20627;-67
2022/07/27 07:08:10;;;;;;;1.00;0.90;;;31.60;64.50;;;35.18;28.46;100725.50;5043447;28;20668;-66
2022/07/27 07:10:42;;;;;;;2.67;1.40;;;31.50;62.60;;;34.69;29.25;100715.06;5052611;28;20959;-64
2022/07/27 07:13:10;;;;;;;1.50;1.23;;;31.10;62.40;;;33.54;29.90;100720.63;5033441;28;20632;-66
2022/07/27 07:15:39;;;;;;;1.20;1.10;;;30.60;62.30;;;32.62;31.52;100719.94;5051348;28;20612;-66
2022/07/27 07:18:07;;;;;;;2.70;1.37;;;30.10;62.90;;;30.15;35.36;100712.94;5046935;28;20652;-65
2022/07/27 07:20:35;;;;;;;2.10;1.57;;;28.70;65.00;;;28.29;38.58;100711.53;5027383;28;20636;-68
2022/07/27 07:23:02;;;;;;;1.70;1.30;;;27.20;67.60;;;27.01;41.37;100722.03;5032357;28;20631;-70
2022/07/27 07:25:31;;;;;;;0.73;0.73;;;26.10;70.20;;;26.33;42.98;100718.19;5033230;28;20622;-71
2022/07/27 07:27:58;;;;;;;1.70;1.30;;;25.30;72.70;;;26.24;43.56;100721.31;5030986;28;21261;-70
2022/07/27 07:30:26;;;;;;;3.20;1.37;;;24.90;74.20;;;26.01;44.30;100730.56;5031704;28;20711;-71
2022/07/27 07:32:54;;;;;;;1.10;1.10;;;24.70;75.30;;;26.17;43.61;100724.81;5031331;28;20626;-70
2022/07/27 07:35:21;;;;;;;1.40;1.30;;;24.70;76.00;;;25.78;44.37;100727.53;5033291;28;20702;-70
2022/07/27 07:37:48;;;;;;;2.97;1.30;;;24.50;76.80;;;25.90;44.20;100728.53;5031652;28;21255;-71
2022/07/27 07:40:18;;;;;;;1.53;1.43;;;24.50;77.20;;;25.87;44.08;100728.97;5031692;28;21006;-70
2022/07/27 07:43:05;;;;;;;1.50;1.50;;;24.50;76.90;;;25.65;45.07;100727.50;5049594;28;20635;-71
2022/07/27 07:45:38;;;;;;;1.70;1.60;;;24.30;77.40;;;26.48;43.48;100733.97;5033425;28;20706;-70
2022/07/27 07:48:17;;;;;;;1.23;1.13;;;24.70;77.70;;;27.97;40.09;100727.94;5049198;28;20769;-71
2022/07/27 07:50:44;;;;;;;2.03;1.10;;;25.50;75.70;;;28.65;39.00;100731.34;5034467;28;20986;-71
2022/07/27 07:53:14;;;;;;;1.60;1.20;;;26.10;74.30;;;29.42;37.14;100738.56;5050748;28;20644;-71
2022/07/27 07:55:41;;;;;;;3.40;1.30;;;26.70;72.10;;;29.30;37.22;100733.19;5033524;28;20627;-71
2022/07/27 07:58:07;;;;;;;4.23;1.27;;;27.00;70.60;;;29.03;37.19;100729.19;5044207;28;20666;-70
2022/07/27 08:00:34;;;;;;;1.47;1.23;;;27.00;70.50;;;28.60;38.20;100729.34;5051481;28;20984;-70
2022/07/27 08:03:01;;;;;;;1.20;1.17;;;26.80;70.60;;;28.00;39.61;100725.66;5050123;28;20660;-71
2022/07/27 08:05:31;;;;;;;1.90;1.43;;;26.50;71.20;;;26.62;42.49;100730.25;5049114;28;20632;-71
2022/07/27 08:07:58;;;;;;;1.93;1.27;;;25.60;73.20;;;26.40;43.08;100728.88;5033378;28;20659;-71
2022/07/27 08:10:26;;;;;;;1.73;1.50;;;25.20;74.70;;;25.81;44.15;100724.41;5031161;28;21215;-70
2022/07/27 08:12:55;;;;;;;1.37;1.20;;;24.70;75.40;;;25.46;45.38;100732.84;5033766;28;20703;-71
2022/07/27 08:15:24;;;;;;;1.63;1.10;;;24.50;76.40;;;26.09;44.14;100733.06;5032888;28;21265;-71
2022/07/27 08:18:03;;;;;;;1.90;1.20;;;24.60;76.80;;;26.01;43.98;100735.91;5019607;28;20651;-71
2022/07/27 08:20:30;;;;;;;1.57;1.37;;;24.60;76.50;;;26.59;43.03;100744.88;5016079;28;20632;-71
2022/07/27 08:22:57;;;;;;;2.20;1.40;;;24.90;76.80;;;27.04;42.41;100744.91;5033871;28;20719;-70
2022/07/27 08:25:24;;;;;;;0.93;0.93;;;25.10;76.70;;;27.26;42.15;100751.56;5050831;28;20606;-70
2022/07/27 08:27:51;;;;;;;3.20;1.70;;;25.40;75.90;;;28.16;39.97;100745.72;5034081;28;20735;-71
2022/07/27 08:30:21;;;;;;;1.47;1.37;;;25.90;75.20;;;28.19;39.47;100739.91;5046580;28;20659;-71
2022/07/27 08:32:52;;;;;;;1.63;1.47;;;26.20;73.50;;;29.96;37.30;100743.72;5049713;28;20618;-71
2022/07/27 08:35:20;;;;;;;1.50;1.23;;;26.80;73.10;;;31.56;33.54;100750.75;5049049;28;21089;-71
2022/07/27 08:37:47;;;;;;;3.97;1.60;;;28.00;69.50;;;30.61;35.03;100744.34;5033418;28;21253;-71
2022/07/27 08:40:15;;;;;;;2.40;1.50;;;28.10;68.80;;;30.46;35.62;100742.16;5048072;28;20619;-70
2022/07/27 08:43:03;;;;;;;1.43;1.33;;;28.00;68.60;;;31.38;33.43;100740.16;5049906;28;20600;-71
2022/07/27 08:45:32;;;;;;;1.90;1.40;;;28.40;66.90;;;32.91;31.09;100745.66;5031597;28;20635;-71
2022/07/27 08:48:00;;;;;;;3.30;1.60;;;29.10;65.50;;;33.25;30.02;100755.22;5032837;28;20731;-71
2022/07/27 08:50:29;;;;;;;3.50;1.70;;;29.70;63.70;;;32.03;31.67;100743.16;5050664;28;20658;-71
2022/07/27 08:53:06;;;;;;;8.50;1.43;;;29.30;63.70;;;31.42;32.66;100727.03;5049747;28;20685;-72
2022/07/27 08:55:40;;;;;;;2.83;1.70;;;28.90;64.30;;;31.65;32.36;100734.97;5048610;28;20635;-72
2022/07/27 08:58:09;;;;;;;1.53;1.43;;;28.70;64.40;;;30.79;33.83;100740.66;5047682;28;20760;-71
2022/07/27 09:00:41;;;;;;;2.83;1.33;;;28.50;64.70;;;32.36;32.10;100742.25;5031313;28;20638;-72
2022/07/27 09:03:13;;;;;;;1.40;1.30;;;29.00;65.20;;;35.95;26.80;100747.78;5031144;28;20628;-71
2022/07/27 09:05:50;;;;;;;2.53;1.40;;;30.50;62.60;;;36.55;25.62;100753.06;5029412;28;20647;-72
2022/07/27 09:08:24;;;;;;;1.53;1.30;;;31.60;59.50;;;32.83;30.33;100736.13;5032038;28;21027;-72
2022/07/27 09:10:54;;;;;;;3.90;1.23;;;30.30;60.10;;;31.45;32.15;100738.19;5017886;28;20699;-72
2022/07/27 09:13:33;;;;;;;6.60;1.40;;;29.40;62.30;;;30.13;34.99;100741.94;5042434;28;20645;-72
2022/07/27 09:16:03;;;;;;;1.57;1.50;;;28.50;63.50;;;31.45;32.60;100740.06;5019402;28;20607;-72
2022/07/27 09:18:57;;;;;;;1.60;1.50;;;28.80;63.50;;;33.63;29.70;100740.72;5037131;28;20675;-72
2022/07/27 09:21:24;;;;;;;1.43;1.37;;;29.50;62.50;;;34.99;27.11;100744.22;5037432;28;20972;-73
2022/07/27 09:23:56;;;;;;;1.77;1.70;;;30.60;60.00;;;37.41;24.17;100743.59;5054816;28;20615;-73
2022/07/27 09:26:28;;;;;;;2.70;1.60;;;32.20;57.40;;;38.66;22.90;100749.66;5026144;28;21021;-71
2022/07/27 09:29:09;;;;;;;1.50;1.40;;;33.30;55.80;;;37.91;23.27;100752.16;5046363;28;20754;-71
2022/07/27 09:31:48;;;;;;;3.87;1.67;;;33.30;55.10;;;37.73;23.88;100746.59;5033539;28;20608;-69
2022/07/27 09:34:33;;;;;;;1.60;1.50;;;33.20;54.80;;;41.74;20.23;100742.63;5053650;28;20618;-71
2022/07/27 09:37:05;;;;;;;1.30;1.30;;;35.10;53.60;;;42.88;18.27;100752.53;5052739;28;20620;-72
2022/07/27 09:39:32;;;;;;;1.47;1.37;;;36.10;51.40;;;43.92;17.39;100749.34;5035311;28;20674;-71
2022/07/27 09:42:01;;;;;;;2.83;1.80;;;37.20;49.30;;;44.23;17.06;100740.81;5033783;28;20620;-71
2022/07/27 09:44:38;;;;;;;4.53;1.80;;;37.70;48.00;;;43.11;18.10;100743.81;5031268;28;20723;-68
2022/07/27 09:47:25;;;;;;;3.60;2.10;;;37.50;47.30;;;43.10;17.68;100749.63;5053132;28;20635;-70
2022/07/27 09:49:56;;;;;;;3.60;1.60;;;37.50;47.00;;;44.60;16.68;100748.19;5052929;28;21101;-70
2022/07/27 09:52:30;;;;;;;3.40;1.50;;;38.00;46.60;;;44.85;16.67;100755.53;5031756;28;20650;-70
2022/07/27 09:55:05;;;;;;;1.53;1.43;;;38.20;46.10;;;40.34;20.03;100741.19;5054480;28;20715;-70
2022/07/27 09:57:56;;;;;;;1.40;1.40;;;36.50;46.70;;;37.48;22.87;100725.88;5049626;28;20632;-70
2022/07/27 10:00:24;;;;;;;2.47;1.80;;;34.50;48.70;;;36.21;24.66;100737.66;5047259;28;20750;-71
2022/07/27 10:02:53;;;;;;;2.00;1.80;;;33.50;50.20;;;34.12;27.17;100725.91;5035493;28;20630;-70
2022/07/27 10:05:21;;;;;;;4.10;1.83;;;32.10;51.80;;;32.29;29.77;100722.72;5034578;28;20664;-68
2022/07/27 10:07:52;;;;;;;1.83;1.57;;;30.80;53.60;;;31.21;31.79;100723.97;5053000;28;20644;-70
2022/07/27 10:10:21;;;;;;;2.03;1.93;;;29.60;55.70;;;30.21;33.15;100724.63;5031177;28;20668;-71
2022/07/27 10:12:49;;;;;;;2.50;1.80;;;28.80;57.00;;;30.22;33.38;100729.75;5037659;28;20636;-70
2022/07/27 10:15:23;;;;;;;2.20;2.10;;;28.40;57.70;;;31.82;31.33;100741.16;5049949;28;21206;-69
2022/07/27 10:18:04;;;;;;;5.77;1.80;;;28.90;58.00;;;33.96;27.96;100753.13;5031446;28;21273;-72
2022/07/27 10:20:38;;;;;;;2.20;1.80;;;29.90;56.20;;;34.62;26.70;100747.03;5022832;28;20633;-72
2022/07/27 10:23:06;;;;;;;3.40;1.30;;;30.80;54.80;;;33.98;27.39;100740.16;5016636;28;20715;-71
2022/07/27 10:25:34;;;;;;;3.60;2.00;;;30.80;54.10;;;33.11;28.85;100740.50;5025083;28;20670;-72